createdAt,value
2019-05-25T00:01:55.482Z,63.97
2019-05-25T00:04:27.178Z,65.13
2019-05-25T00:06:56.455Z,64.34
2019-05-25T00:09:29.037Z,65.64
2019-05-25T00:12:01.195Z,66.84
2019-05-25T00:14:30.372Z,69.24
2019-05-25T00:16:59.512Z,70.49
2019-05-25T00:19:42.399Z,70.39
2019-05-25T00:22:11.610Z,69.15
2019-05-25T00:24:42.967Z,65.65
2019-05-25T00:27:15.761Z,65.08
2019-05-25T00:29:47.088Z,63.72
2019-05-25T00:32:15.766Z,66.49
2019-05-25T00:34:44.946Z,69.56
2019-05-25T00:37:15.290Z,70.75
2019-05-25T00:39:44.432Z,71.80
2019-05-25T00:42:13.572Z,71.63
2019-05-25T00:44:45.815Z,72.16
2019-05-25T00:47:17.947Z,71.53
2019-05-25T00:49:53.162Z,71.74
2019-05-25T00:52:25.367Z,71.37
2019-05-25T00:54:54.792Z,72.24
2019-05-25T00:57:24.013Z,72.63
2019-05-25T00:59:53.268Z,72.19
2019-05-25T01:02:22.577Z,72.92
2019-05-25T01:04:53.032Z,70.60
2019-05-25T01:07:28.133Z,70.70
2019-05-25T01:09:57.819Z,70.19
2019-05-25T01:12:31.479Z,69.71
2019-05-25T01:15:01.689Z,70.11
2019-05-25T01:17:34.017Z,70.80
2019-05-25T01:20:04.338Z,71.57
2019-05-25T01:22:39.753Z,71.62
2019-05-25T01:25:09.275Z,71.61
2019-05-25T01:27:38.609Z,71.32
2019-05-25T01:30:08.504Z,71.42
2019-05-25T01:32:37.631Z,70.63
2019-05-25T01:35:07.412Z,70.86
2019-05-25T01:37:36.977Z,69.49
2019-05-25T01:40:09.894Z,66.37
2019-05-25T01:42:43.183Z,65.27
2019-05-25T01:45:15.637Z,64.83
2019-05-25T01:47:44.786Z,67.76
2019-05-25T01:50:15.117Z,68.68
2019-05-25T01:52:44.530Z,69.62
2019-05-25T01:55:13.975Z,70.86
2019-05-25T01:57:44.872Z,70.99
2019-05-25T02:00:14.569Z,71.43
2019-05-25T02:02:44.142Z,71.95
2019-05-25T02:05:13.355Z,71.57
2019-05-25T02:07:44.157Z,69.82
2019-05-25T02:10:14.247Z,70.35
2019-05-25T02:12:43.372Z,72.16
2019-05-25T02:15:12.942Z,71.24
2019-05-25T02:17:44.193Z,69.37
2019-05-25T02:20:16.994Z,68.62
2019-05-25T02:22:46.646Z,69.07
2019-05-25T02:25:21.525Z,69.56
2019-05-25T02:27:51.023Z,69.01
2019-05-25T02:30:22.254Z,67.89
2019-05-25T02:32:54.371Z,67.38
2019-05-25T02:35:30.302Z,67.30
2019-05-25T02:38:01.445Z,65.60
2019-05-25T02:40:33.250Z,64.49
2019-05-25T02:43:04.040Z,64.88
2019-05-25T02:45:33.191Z,63.51
2019-05-25T02:48:02.437Z,63.81
2019-05-25T02:50:31.545Z,63.43
2019-05-25T02:53:02.160Z,62.74
2019-05-25T02:55:37.662Z,63.29
2019-05-25T02:58:06.839Z,63.90
2019-05-25T03:00:36.254Z,64.89
2019-05-25T03:03:07.094Z,67.32
2019-05-25T03:05:38.060Z,68.02
2019-05-25T03:08:14.330Z,67.68
2019-05-25T03:10:44.270Z,69.19
2019-05-25T03:13:13.841Z,66.26
2019-05-25T03:15:42.982Z,64.25
2019-05-25T03:18:13.401Z,63.19
2019-05-25T03:20:42.519Z,62.63
2019-05-25T03:23:13.546Z,62.98
2019-05-25T03:25:49.576Z,63.01
2019-05-25T03:28:14.760Z,62.62
2019-05-25T03:30:46.273Z,62.34
2019-05-25T03:33:15.724Z,61.64
2019-05-25T03:35:44.953Z,61.37
2019-05-25T03:38:16.937Z,63.84
2019-05-25T03:40:48.551Z,67.78
2019-05-25T03:43:17.680Z,68.61
2019-05-25T03:45:46.865Z,69.79
2019-05-25T03:48:15.986Z,71.37
2019-05-25T03:50:45.055Z,71.09
2019-05-25T03:53:14.309Z,71.67
2019-05-25T03:55:46.199Z,72.07
2019-05-25T03:58:18.638Z,71.52
2019-05-25T04:00:50.746Z,72.39
2019-05-25T04:03:20.989Z,72.17
2019-05-25T04:05:51.387Z,71.58
2019-05-25T04:08:20.713Z,72.22
2019-05-25T04:10:53.034Z,72.79
2019-05-25T04:13:25.304Z,72.89
2019-05-25T04:15:54.595Z,73.86
2019-05-25T04:18:23.779Z,72.99
2019-05-25T04:20:54.010Z,72.13
2019-05-25T04:23:24.898Z,72.22
2019-05-25T04:25:58.617Z,70.61
2019-05-25T04:28:30.148Z,70.52
2019-05-25T04:30:59.316Z,70.34
2019-05-25T04:33:28.683Z,69.21
2019-05-25T04:36:00.918Z,68.95
2019-05-25T04:38:30.531Z,66.19
2019-05-25T04:41:02.069Z,66.19
2019-05-25T04:43:32.682Z,64.71
2019-05-25T04:46:04.491Z,65.82
2019-05-25T04:48:35.274Z,64.25
2019-05-25T04:51:04.405Z,64.01
2019-05-25T04:53:34.806Z,63.01
2019-05-25T04:56:08.788Z,64.56
2019-05-25T04:58:39.223Z,65.64
2019-05-25T05:01:22.446Z,64.67
2019-05-25T05:03:48.616Z,63.40
2019-05-25T05:06:17.733Z,65.20
2019-05-25T05:08:48.279Z,63.97
2019-05-25T05:11:20.720Z,65.11
2019-05-25T05:13:50.262Z,63.58
2019-05-25T05:16:22.945Z,63.50
2019-05-25T05:18:52.081Z,63.38
2019-05-25T05:21:21.186Z,62.83
2019-05-25T05:23:52.323Z,62.01
2019-05-25T05:26:21.889Z,61.29
2019-05-25T05:28:58.627Z,61.41
2019-05-25T05:31:31.307Z,61.71
2019-05-25T05:34:03.756Z,59.80
2019-05-25T05:36:33.903Z,59.31
2019-05-25T05:39:08.871Z,59.47
2019-05-25T05:41:39.915Z,60.33
2019-05-25T05:44:09.943Z,59.46
2019-05-25T05:46:43.675Z,59.13
2019-05-25T05:49:20.260Z,60.00
2019-05-25T05:51:51.340Z,58.64
2019-05-25T05:54:23.258Z,57.30
2019-05-25T05:56:52.410Z,56.28
2019-05-25T05:59:26.006Z,56.04
2019-05-25T06:01:55.131Z,55.91
2019-05-25T06:04:24.373Z,54.86
2019-05-25T06:06:54.968Z,53.62
2019-05-25T06:09:24.262Z,52.77
2019-05-25T06:11:55.207Z,51.89
2019-05-25T06:14:24.366Z,51.26
2019-05-25T06:16:54.699Z,50.11
2019-05-25T06:19:26.447Z,49.54
2019-05-25T06:21:57.221Z,50.03
2019-05-25T06:24:28.021Z,49.64
2019-05-25T06:26:57.138Z,49.73
2019-05-25T06:29:28.083Z,50.06
2019-05-25T06:31:59.486Z,49.35
2019-05-25T06:34:31.660Z,49.38
2019-05-25T06:37:00.994Z,48.95
2019-05-25T06:39:31.808Z,49.82
2019-05-25T06:42:01.035Z,48.39
2019-05-25T06:44:30.195Z,48.29
2019-05-25T06:46:59.424Z,47.50
2019-05-25T06:49:33.508Z,47.79
2019-05-25T06:52:04.361Z,48.35
2019-05-25T06:54:33.546Z,47.55
2019-05-25T06:57:02.935Z,47.11
2019-05-25T06:59:35.354Z,47.76
2019-05-25T07:02:04.820Z,47.76
2019-05-25T07:04:38.343Z,47.50
2019-05-25T07:07:12.950Z,47.87
2019-05-25T07:09:44.773Z,47.77
2019-05-25T07:12:13.866Z,48.18
2019-05-25T07:14:44.223Z,47.84
2019-05-25T07:17:17.911Z,48.61
2019-05-25T07:19:48.808Z,48.92
2019-05-25T07:22:23.515Z,48.77
2019-05-25T07:24:55.079Z,49.14
2019-05-25T07:27:29.085Z,49.60
2019-05-25T07:30:01.324Z,49.95
2019-05-25T07:32:30.482Z,49.00
2019-05-25T07:35:00.199Z,49.67
2019-05-25T07:37:32.185Z,49.03
2019-05-25T07:40:08.945Z,49.72
2019-05-25T07:42:43.542Z,49.35
2019-05-25T07:45:17.883Z,49.54
2019-05-25T07:47:47.051Z,48.23
2019-05-25T07:50:17.117Z,48.88
2019-05-25T07:52:46.866Z,48.10
2019-05-25T07:55:19.831Z,47.38
2019-05-25T07:57:48.964Z,47.43
2019-05-25T08:00:18.467Z,45.53
2019-05-25T08:02:47.732Z,46.56
2019-05-25T08:05:17.181Z,47.58
2019-05-25T08:07:51.010Z,47.25
2019-05-25T08:10:21.851Z,48.35
2019-05-25T08:12:51.750Z,47.20
2019-05-25T08:15:21.364Z,48.52
2019-05-25T08:17:52.827Z,49.38
2019-05-25T08:20:23.928Z,50.68
2019-05-25T08:22:54.622Z,51.13
2019-05-25T08:25:27.381Z,52.02
2019-05-25T08:27:56.741Z,52.24
2019-05-25T08:30:26.196Z,53.08
2019-05-25T08:32:57.877Z,52.79
2019-05-25T08:35:29.357Z,52.32
2019-05-25T08:37:59.289Z,52.44
2019-05-25T08:40:29.076Z,55.26
2019-05-25T08:42:58.140Z,56.17
2019-05-25T08:45:29.499Z,56.62
2019-05-25T08:47:59.182Z,56.65
2019-05-25T08:50:38.452Z,56.60
2019-05-25T08:52:59.490Z,56.18
2019-05-25T08:55:28.903Z,55.73
2019-05-25T08:57:58.145Z,55.92
2019-05-25T09:00:30.478Z,55.01
2019-05-25T09:02:59.894Z,54.59
2019-05-25T09:05:36.358Z,54.53
2019-05-25T09:08:05.839Z,53.55
2019-05-25T09:10:35.233Z,53.67
2019-05-25T09:13:05.229Z,52.77
2019-05-25T09:15:34.379Z,53.88
2019-05-25T09:18:04.865Z,52.81
2019-05-25T09:20:34.025Z,52.90
2019-05-25T09:23:03.181Z,52.66
2019-05-25T09:25:34.528Z,53.96
2019-05-25T09:28:03.708Z,54.48
2019-05-25T09:30:34.025Z,52.33
2019-05-25T09:33:06.123Z,53.75
2019-05-25T09:35:38.561Z,52.91
2019-05-25T09:38:12.346Z,53.07
2019-05-25T09:40:42.236Z,52.24
2019-05-25T09:43:15.843Z,52.16
2019-05-25T09:45:46.561Z,52.95
2019-05-25T09:48:16.866Z,52.06
2019-05-25T09:50:47.236Z,51.49
2019-05-25T09:53:18.142Z,52.41
2019-05-25T09:55:48.668Z,51.60
2019-05-25T09:58:24.360Z,51.59
2019-05-25T10:00:53.513Z,51.89
2019-05-25T10:03:25.134Z,52.69
2019-05-25T10:05:58.206Z,51.91
2019-05-25T10:08:29.185Z,52.69
2019-05-25T10:10:59.468Z,52.21
2019-05-25T10:13:31.336Z,51.41
2019-05-25T10:16:00.981Z,52.43
2019-05-25T10:18:30.175Z,54.47
2019-05-25T10:21:02.644Z,54.18
2019-05-25T10:23:32.022Z,54.65
2019-05-25T10:26:07.201Z,54.20
2019-05-25T10:28:38.417Z,53.98
2019-05-25T10:31:07.636Z,53.42
2019-05-25T10:33:36.800Z,54.23
2019-05-25T10:36:06.146Z,56.12
2019-05-25T10:38:36.126Z,55.84
2019-05-25T10:41:09.315Z,55.58
2019-05-25T10:43:43.661Z,55.37
2019-05-25T10:46:13.168Z,57.20
2019-05-25T10:48:47.365Z,55.97
2019-05-25T10:51:18.151Z,55.13
2019-05-25T10:53:47.261Z,54.33
2019-05-25T10:56:16.642Z,52.83
2019-05-25T10:58:46.192Z,53.88
2019-05-25T11:01:22.087Z,52.88
2019-05-25T11:03:54.462Z,53.29
2019-05-25T11:06:23.829Z,53.41
2019-05-25T11:08:52.910Z,53.12
2019-05-25T11:11:24.283Z,53.21
2019-05-25T11:13:57.763Z,53.14
2019-05-25T11:16:28.883Z,52.97
2019-05-25T11:18:58.290Z,53.15
2019-05-25T11:21:34.727Z,53.48
2019-05-25T11:24:06.925Z,53.80
2019-05-25T11:26:39.128Z,54.09
2019-05-25T11:29:08.257Z,53.54
2019-05-25T11:31:37.438Z,53.80
2019-05-25T11:34:13.668Z,53.69
2019-05-25T11:36:44.870Z,53.73
2019-05-25T11:39:16.184Z,54.23
2019-05-25T11:41:50.472Z,55.56
2019-05-25T11:44:21.124Z,54.06
2019-05-25T11:46:52.081Z,53.33
2019-05-25T11:49:29.620Z,52.31
2019-05-25T11:52:05.027Z,49.37
2019-05-25T11:54:33.889Z,51.39
2019-05-25T11:57:04.606Z,53.17
2019-05-25T11:59:44.586Z,52.77
2019-05-25T12:02:15.106Z,50.43
2019-05-25T12:07:24.652Z,48.03
2019-05-25T12:09:55.441Z,47.69
2019-05-25T12:12:25.691Z,48.79
2019-05-25T12:14:54.939Z,48.14
2019-05-25T12:17:26.179Z,50.12
2019-05-25T12:19:58.350Z,48.65
2019-05-25T12:22:27.578Z,48.20
2019-05-25T12:24:56.787Z,47.70
2019-05-25T12:27:27.073Z,46.46
2019-05-25T12:29:56.221Z,44.33
2019-05-25T12:32:28.081Z,47.07
2019-05-25T12:34:57.225Z,46.45
2019-05-25T12:37:27.869Z,46.76
2019-05-25T12:39:56.996Z,44.15
2019-05-25T12:42:27.298Z,44.02
2019-05-25T12:45:00.293Z,44.92
2019-05-25T12:47:30.933Z,44.00
2019-05-25T12:50:00.589Z,44.17
2019-05-25T12:52:31.641Z,46.21
2019-05-25T12:55:00.860Z,46.51
2019-05-25T12:57:33.786Z,46.02
2019-05-25T13:00:15.666Z,43.77
2019-05-25T13:02:41.277Z,44.92
2019-05-25T13:05:16.086Z,46.12
2019-05-25T13:07:47.623Z,46.08
2019-05-25T13:10:17.254Z,46.50
2019-05-25T13:12:49.489Z,45.77
2019-05-25T13:15:19.778Z,45.94
2019-05-25T13:17:48.971Z,44.38
2019-05-25T13:20:20.006Z,44.13
2019-05-25T13:22:50.671Z,43.71
2019-05-25T13:25:19.885Z,45.67
2019-05-25T13:27:52.258Z,44.41
2019-05-25T13:30:24.693Z,45.69
2019-05-25T13:32:55.593Z,45.51
2019-05-25T13:35:26.471Z,46.24
2019-05-25T13:37:55.996Z,47.17
2019-05-25T13:40:25.494Z,46.68
2019-05-25T13:42:54.764Z,44.52
2019-05-25T13:45:25.104Z,44.82
2019-05-25T13:47:56.821Z,45.51
2019-05-25T13:50:28.458Z,45.80
2019-05-25T13:53:00.547Z,48.65
2019-05-25T13:55:32.911Z,48.98
2019-05-25T13:58:03.877Z,49.32
2019-05-25T14:00:32.997Z,49.94
2019-05-25T14:03:03.485Z,54.38
2019-05-25T14:05:34.143Z,58.75
2019-05-25T14:08:03.406Z,61.53
2019-05-25T14:10:33.764Z,62.41
2019-05-25T14:13:12.306Z,63.05
2019-05-25T14:15:43.638Z,63.87
2019-05-25T14:18:14.394Z,67.50
2019-05-25T14:20:43.789Z,69.91
2019-05-25T14:23:14.284Z,72.98
2019-05-25T14:25:43.523Z,72.24
2019-05-25T14:28:12.842Z,71.81
2019-05-25T14:30:43.898Z,73.91
2019-05-25T14:33:14.683Z,74.25
2019-05-25T14:35:48.786Z,77.34
2019-05-25T14:38:17.929Z,76.66
2019-05-25T14:40:47.041Z,74.92
2019-05-25T14:43:16.172Z,75.06
2019-05-25T14:45:48.172Z,74.70
2019-05-25T14:48:19.230Z,73.77
2019-05-25T14:50:48.491Z,73.46
2019-05-25T14:53:17.647Z,70.96
2019-05-25T14:55:51.296Z,71.04
2019-05-25T14:58:21.648Z,70.95
2019-05-25T15:00:52.557Z,69.55
2019-05-25T15:03:21.908Z,71.38
2019-05-25T15:05:51.148Z,75.85
2019-05-25T15:08:22.449Z,79.80
2019-05-25T15:10:56.022Z,78.81
2019-05-25T15:13:25.587Z,78.15
2019-05-25T15:15:59.991Z,75.68
2019-05-25T15:18:30.655Z,72.37
2019-05-25T15:21:02.591Z,69.93
2019-05-25T15:23:31.835Z,70.55
2019-05-25T15:26:04.181Z,70.59
2019-05-25T15:28:34.195Z,69.71
2019-05-25T15:31:04.644Z,70.06
2019-05-25T15:33:38.218Z,70.63
2019-05-25T15:36:07.375Z,71.35
2019-05-25T15:38:36.498Z,72.38
2019-05-25T15:41:05.685Z,72.41
2019-05-25T15:43:37.633Z,71.70
2019-05-25T15:46:06.686Z,73.39
2019-05-25T15:48:36.899Z,73.91
2019-05-25T15:51:06.260Z,75.24
2019-05-25T15:53:35.335Z,74.75
2019-05-25T15:56:06.225Z,75.21
2019-05-25T15:58:38.699Z,75.36
2019-05-25T16:01:08.010Z,74.48
2019-05-25T16:03:37.136Z,75.23
2019-05-25T16:06:06.393Z,74.94
2019-05-25T16:08:37.405Z,76.92
2019-05-25T16:11:06.782Z,79.63
2019-05-25T16:13:36.097Z,81.93
2019-05-25T16:16:05.450Z,82.81
2019-05-25T16:18:36.418Z,82.58
2019-05-25T16:21:05.691Z,81.52
2019-05-25T16:23:37.445Z,80.98
2019-05-25T16:26:06.698Z,81.14
2019-05-25T16:28:38.641Z,81.63
2019-05-25T16:31:08.659Z,81.97
2019-05-25T16:33:38.061Z,82.33
2019-05-25T16:36:09.404Z,82.77
2019-05-25T16:38:44.213Z,82.18
2019-05-25T16:41:14.637Z,81.50
2019-05-25T16:43:46.908Z,81.83
2019-05-25T16:46:16.194Z,81.29
2019-05-25T16:48:45.392Z,81.42
2019-05-25T16:51:14.541Z,80.69
2019-05-25T16:53:43.734Z,80.82
2019-05-25T16:56:13.135Z,81.04
2019-05-25T16:58:47.660Z,80.15
2019-05-25T17:01:18.162Z,79.50
2019-05-25T17:03:48.597Z,80.12
2019-05-25T17:06:19.141Z,79.39
2019-05-25T17:08:49.452Z,78.64
2019-05-25T17:11:18.871Z,78.94
2019-05-25T17:13:48.064Z,79.60
2019-05-25T17:16:17.222Z,78.41
2019-05-25T17:18:47.934Z,77.78
2019-05-25T17:21:17.164Z,77.61
2019-05-25T17:23:47.403Z,77.75
2019-05-25T17:26:17.103Z,77.40
2019-05-25T17:28:46.240Z,76.00
2019-05-25T17:31:17.221Z,75.20
2019-05-25T17:33:48.371Z,74.39
2019-05-25T17:36:18.715Z,73.67
2019-05-25T17:38:49.165Z,73.60
2019-05-25T17:41:22.912Z,74.43
2019-05-25T17:43:53.560Z,72.69
2019-05-25T17:46:24.031Z,74.09
2019-05-25T17:48:53.341Z,74.31
2019-05-25T17:51:22.834Z,74.31
2019-05-25T17:53:51.990Z,72.65
2019-05-25T17:56:21.180Z,72.57
2019-05-25T17:58:51.536Z,74.14
2019-05-25T18:01:22.392Z,75.08
2019-05-25T18:04:05.666Z,75.21
2019-05-25T18:06:22.400Z,76.27
2019-05-25T18:08:51.644Z,75.74
2019-05-25T18:11:20.992Z,76.06
2019-05-25T18:14:11.203Z,76.43
2019-05-25T18:16:40.404Z,76.84
2019-05-25T18:19:09.976Z,76.53
2019-05-25T18:21:39.291Z,77.07
2019-05-25T18:24:13.867Z,78.00
2019-05-25T18:26:45.295Z,77.22
2019-05-25T18:29:14.436Z,77.88
2019-05-25T18:31:48.227Z,77.60
2019-05-25T18:34:22.137Z,76.68
2019-05-25T18:36:50.644Z,77.69
2019-05-25T18:39:23.124Z,77.01
2019-05-25T18:41:53.278Z,77.53
2019-05-25T18:44:22.820Z,78.66
2019-05-25T18:46:58.778Z,79.02
2019-05-25T18:49:29.423Z,79.12
2019-05-25T18:52:00.671Z,78.91
2019-05-25T18:54:30.524Z,78.69
2019-05-25T18:57:04.499Z,77.76
2019-05-25T18:59:31.439Z,78.40
2019-05-25T19:02:02.397Z,79.15
2019-05-25T19:04:45.017Z,78.95
2019-05-25T19:07:02.519Z,78.98
2019-05-25T19:09:31.754Z,78.57
2019-05-25T19:12:05.149Z,79.33
2019-05-25T19:14:34.571Z,79.59
2019-05-25T19:17:03.911Z,79.26
2019-05-25T19:19:33.170Z,79.70
2019-05-25T19:22:02.373Z,81.00
2019-05-25T19:24:32.601Z,81.77
2019-05-25T19:27:08.042Z,82.77
2019-05-25T19:29:38.538Z,82.62
2019-05-25T19:32:08.004Z,83.19
2019-05-25T19:34:56.574Z,83.19
2019-05-25T19:37:12.740Z,83.27
2019-05-25T19:40:08.744Z,83.06
2019-05-25T19:42:37.430Z,82.92
2019-05-25T19:45:10.083Z,83.04
2019-05-25T19:47:39.645Z,82.07
2019-05-25T19:50:12.622Z,82.52
2019-05-25T19:52:41.780Z,82.85
2019-05-25T19:55:11.785Z,82.84
2019-05-25T19:57:44.887Z,82.06
2019-05-25T20:00:15.642Z,82.18
2019-05-25T20:02:43.053Z,82.25
2019-05-25T20:05:16.968Z,82.70
2019-05-25T20:07:45.051Z,82.64
2019-05-25T20:10:14.741Z,82.31
2019-05-25T20:12:45.652Z,82.49
2019-05-25T20:15:16.345Z,82.89
2019-05-25T20:17:45.473Z,82.40
2019-05-25T20:20:15.228Z,82.33
2019-05-25T20:22:48.680Z,82.17
2019-05-25T20:25:18.275Z,82.09
2019-05-25T20:27:50.742Z,82.06
2019-05-25T20:30:22.033Z,82.36
2019-05-25T20:32:51.278Z,81.85
2019-05-25T20:35:33.062Z,82.17
2019-05-25T20:37:58.971Z,82.25
2019-05-25T20:40:28.138Z,82.35
2019-05-25T20:42:57.277Z,82.73
2019-05-25T20:45:26.489Z,82.02
2019-05-25T20:47:57.650Z,81.79
2019-05-25T20:50:29.664Z,82.16
2019-05-25T20:53:01.221Z,83.01
2019-05-25T20:55:30.414Z,83.51
2019-05-25T20:58:01.201Z,83.47
2019-05-25T21:00:34.233Z,84.22
2019-05-25T21:03:06.991Z,83.90
2019-05-25T21:05:49.768Z,83.98
2019-05-25T21:08:09.027Z,84.24
2019-05-25T21:10:38.196Z,84.37
2019-05-25T21:13:08.029Z,85.13
2019-05-25T21:15:40.770Z,85.37
2019-05-25T21:18:10.294Z,84.86
2019-05-25T21:20:43.857Z,83.34
2019-05-25T21:23:14.647Z,83.15
2019-05-25T21:25:43.777Z,83.54
2019-05-25T21:28:12.911Z,83.64
2019-05-25T21:30:48.208Z,83.63
2019-05-25T21:33:18.359Z,82.25
2019-05-25T21:35:47.555Z,82.38
2019-05-25T21:38:16.725Z,82.62
2019-05-25T21:40:45.866Z,82.19
2019-05-25T21:43:15.152Z,83.06
2019-05-25T21:45:44.362Z,82.49
2019-05-25T21:48:15.030Z,82.94
2019-05-25T21:50:44.191Z,81.08
2019-05-25T21:53:15.537Z,81.01
2019-05-25T21:55:45.852Z,80.76
2019-05-25T21:58:14.972Z,79.68
2019-05-25T22:00:45.508Z,80.16
2019-05-25T22:03:16.389Z,79.56
2019-05-25T22:05:49.731Z,78.73
2019-05-25T22:08:22.051Z,78.35
2019-05-25T22:10:51.259Z,77.73
2019-05-25T22:13:28.700Z,76.64
2019-05-25T22:15:55.433Z,77.26
2019-05-25T22:18:24.556Z,78.07
2019-05-25T22:20:53.670Z,78.06
2019-05-25T22:23:23.931Z,78.94
2019-05-25T22:25:53.047Z,77.03
2019-05-25T22:28:24.897Z,77.72
2019-05-25T22:30:54.168Z,78.87
2019-05-25T22:33:25.354Z,78.48
2019-05-25T22:35:54.668Z,78.93
2019-05-25T22:38:24.333Z,76.48
2019-05-25T22:40:53.481Z,75.28
2019-05-25T22:43:25.206Z,74.93
2019-05-25T22:45:56.582Z,75.44
2019-05-25T22:48:31.985Z,75.46
2019-05-25T22:51:09.876Z,74.98
2019-05-25T22:53:39.247Z,73.88
2019-05-25T22:56:08.399Z,73.80
2019-05-25T22:58:38.822Z,72.20
2019-05-25T23:01:07.953Z,72.16
2019-05-25T23:03:42.845Z,72.31
2019-05-25T23:06:13.435Z,70.16
2019-05-25T23:08:46.773Z,70.03
2019-05-25T23:11:15.994Z,69.39
2019-05-25T23:13:47.228Z,68.86
2019-05-25T23:16:20.066Z,68.28
2019-05-25T23:18:50.165Z,67.67
2019-05-25T23:21:19.272Z,67.11
2019-05-25T23:23:48.948Z,67.68
2019-05-25T23:26:18.109Z,67.53
2019-05-25T23:28:54.557Z,67.59
2019-05-25T23:31:26.376Z,68.19
2019-05-25T23:33:56.800Z,72.40
2019-05-25T23:36:26.363Z,74.89
2019-05-25T23:38:55.486Z,75.92
2019-05-25T23:41:24.633Z,77.02
2019-05-25T23:43:55.082Z,77.58
2019-05-25T23:46:33.599Z,76.68
2019-05-25T23:49:02.893Z,75.66
2019-05-25T23:51:32.011Z,74.96
2019-05-25T23:54:02.893Z,73.91
2019-05-25T23:56:32.290Z,73.66
2019-05-25T23:59:04.749Z,72.51
